sensor_id;sensor_type;location;lat;lon;timestamp;P1;durP1;ratioP1;P2;durP2;ratioP2
77522;SDS011;66637;-29.628;-49.938;2023-06-04T00:00:15;7.25;;;4.05;;
77522;SDS011;66637;-29.628;-49.938;2023-06-04T00:02:48;11.23;;;7.05;;
77522;SDS011;66637;-29.628;-49.938;2023-06-04T00:05:20;11.05;;;7.07;;
77522;SDS011;66637;-29.628;-49.938;2023-06-04T00:07:55;11.80;;;6.07;;
77522;SDS011;66637;-29.628;-49.938;2023-06-04T00:10:26;6.82;;;3.35;;
77522;SDS011;66637;-29.628;-49.938;2023-06-04T00:13:04;5.65;;;3.55;;
77522;SDS011;66637;-29.628;-49.938;2023-06-04T00:15:45;10.40;;;4.18;;
77522;SDS011;66637;-29.628;-49.938;2023-06-04T00:18:18;7.53;;;3.65;;
77522;SDS011;66637;-29.628;-49.938;2023-06-04T00:20:50;6.38;;;2.75;;
77522;SDS011;66637;-29.628;-49.938;2023-06-04T00:23:25;5.05;;;2.72;;
77522;SDS011;66637;-29.628;-49.938;2023-06-04T00:25:56;5.95;;;2.70;;
77522;SDS011;66637;-29.628;-49.938;2023-06-04T00:28:33;3.85;;;2.30;;
77522;SDS011;66637;-29.628;-49.938;2023-06-04T00:31:09;6.15;;;2.60;;
77522;SDS011;66637;-29.628;-49.938;2023-06-04T00:34:24;4.85;;;2.08;;
77522;SDS011;66637;-29.628;-49.938;2023-06-04T00:36:57;3.13;;;2.20;;
77522;SDS011;66637;-29.628;-49.938;2023-06-04T00:39:33;6.80;;;2.35;;
77522;SDS011;66637;-29.628;-49.938;2023-06-04T00:42:08;3.90;;;2.35;;
77522;SDS011;66637;-29.628;-49.938;2023-06-04T00:44:39;4.35;;;2.38;;
77522;SDS011;66637;-29.628;-49.938;2023-06-04T00:47:16;3.67;;;2.20;;
77522;SDS011;66637;-29.628;-49.938;2023-06-04T00:49:49;4.93;;;2.15;;
77522;SDS011;66637;-29.628;-49.938;2023-06-04T00:52:20;4.97;;;2.25;;
77522;SDS011;66637;-29.628;-49.938;2023-06-04T00:54:55;4.63;;;2.45;;
77522;SDS011;66637;-29.628;-49.938;2023-06-04T00:57:28;4.43;;;2.30;;
77522;SDS011;66637;-29.628;-49.938;2023-06-04T00:59:59;4.55;;;2.20;;
77522;SDS011;66637;-29.628;-49.938;2023-06-04T01:02:37;4.53;;;2.22;;
77522;SDS011;66637;-29.628;-49.938;2023-06-04T01:08:16;6.18;;;3.15;;
77522;SDS011;66637;-29.628;-49.938;2023-06-04T01:10:54;5.55;;;3.30;;
77522;SDS011;66637;-29.628;-49.938;2023-06-04T01:13:26;4.38;;;2.85;;
77522;SDS011;66637;-29.628;-49.938;2023-06-04T01:16:01;4.90;;;2.50;;
77522;SDS011;66637;-29.628;-49.938;2023-06-04T01:18:33;4.38;;;2.85;;
77522;SDS011;66637;-29.628;-49.938;2023-06-04T01:21:11;4.45;;;2.53;;
77522;SDS011;66637;-29.628;-49.938;2023-06-04T01:23:51;5.32;;;2.60;;
77522;SDS011;66637;-29.628;-49.938;2023-06-04T01:26:30;5.22;;;2.50;;
77522;SDS011;66637;-29.628;-49.938;2023-06-04T01:29:02;5.00;;;2.30;;
77522;SDS011;66637;-29.628;-49.938;2023-06-04T01:31:34;6.93;;;2.67;;
77522;SDS011;66637;-29.628;-49.938;2023-06-04T01:34:09;5.07;;;2.42;;
77522;SDS011;66637;-29.628;-49.938;2023-06-04T01:37:06;4.45;;;2.40;;
77522;SDS011;66637;-29.628;-49.938;2023-06-04T01:39:37;5.20;;;2.45;;
77522;SDS011;66637;-29.628;-49.938;2023-06-04T01:42:08;4.65;;;2.40;;
77522;SDS011;66637;-29.628;-49.938;2023-06-04T01:44:41;3.55;;;2.30;;
77522;SDS011;66637;-29.628;-49.938;2023-06-04T01:47:19;2.90;;;2.20;;
77522;SDS011;66637;-29.628;-49.938;2023-06-04T01:49:54;5.32;;;2.47;;
77522;SDS011;66637;-29.628;-49.938;2023-06-04T01:52:25;4.35;;;2.72;;
77522;SDS011;66637;-29.628;-49.938;2023-06-04T01:54:59;6.20;;;2.47;;
77522;SDS011;66637;-29.628;-49.938;2023-06-04T01:57:38;5.68;;;3.10;;
77522;SDS011;66637;-29.628;-49.938;2023-06-04T02:00:13;4.82;;;2.55;;
77522;SDS011;66637;-29.628;-49.938;2023-06-04T02:02:46;5.45;;;2.47;;
77522;SDS011;66637;-29.628;-49.938;2023-06-04T02:05:23;4.03;;;2.60;;
77522;SDS011;66637;-29.628;-49.938;2023-06-04T02:07:56;4.80;;;2.40;;
77522;SDS011;66637;-29.628;-49.938;2023-06-04T02:10:36;5.07;;;2.45;;
77522;SDS011;66637;-29.628;-49.938;2023-06-04T02:13:11;4.68;;;2.45;;
77522;SDS011;66637;-29.628;-49.938;2023-06-04T02:15:46;4.90;;;2.42;;
77522;SDS011;66637;-29.628;-49.938;2023-06-04T02:18:20;6.15;;;2.53;;
77522;SDS011;66637;-29.628;-49.938;2023-06-04T02:20:52;4.63;;;2.20;;
77522;SDS011;66637;-29.628;-49.938;2023-06-04T02:23:24;4.53;;;2.38;;
77522;SDS011;66637;-29.628;-49.938;2023-06-04T02:25:55;5.70;;;2.75;;
77522;SDS011;66637;-29.628;-49.938;2023-06-04T02:28:27;4.72;;;2.47;;
77522;SDS011;66637;-29.628;-49.938;2023-06-04T02:31:04;6.15;;;2.58;;
77522;SDS011;66637;-29.628;-49.938;2023-06-04T02:33:38;4.28;;;2.17;;
77522;SDS011;66637;-29.628;-49.938;2023-06-04T02:36:10;5.38;;;2.67;;
77522;SDS011;66637;-29.628;-49.938;2023-06-04T02:38:47;5.68;;;2.97;;
77522;SDS011;66637;-29.628;-49.938;2023-06-04T02:41:18;4.43;;;2.35;;
77522;SDS011;66637;-29.628;-49.938;2023-06-04T02:43:50;3.55;;;2.30;;
77522;SDS011;66637;-29.628;-49.938;2023-06-04T02:46:24;5.65;;;2.65;;
77522;SDS011;66637;-29.628;-49.938;2023-06-04T02:48:55;5.20;;;3.03;;
77522;SDS011;66637;-29.628;-49.938;2023-06-04T02:51:26;4.90;;;2.60;;
77522;SDS011;66637;-29.628;-49.938;2023-06-04T02:53:58;5.22;;;2.50;;
77522;SDS011;66637;-29.628;-49.938;2023-06-04T02:56:30;5.43;;;2.80;;
77522;SDS011;66637;-29.628;-49.938;2023-06-04T02:59:05;5.30;;;2.42;;
77522;SDS011;66637;-29.628;-49.938;2023-06-04T03:01:41;5.32;;;2.47;;
77522;SDS011;66637;-29.628;-49.938;2023-06-04T03:04:13;3.38;;;2.42;;
77522;SDS011;66637;-29.628;-49.938;2023-06-04T03:06:44;6.57;;;2.55;;
77522;SDS011;66637;-29.628;-49.938;2023-06-04T03:09:16;5.40;;;2.20;;
77522;SDS011;66637;-29.628;-49.938;2023-06-04T03:11:48;5.15;;;2.22;;
77522;SDS011;66637;-29.628;-49.938;2023-06-04T03:14:22;4.07;;;2.50;;
77522;SDS011;66637;-29.628;-49.938;2023-06-04T03:16:58;4.45;;;2.50;;
77522;SDS011;66637;-29.628;-49.938;2023-06-04T03:19:43;3.33;;;2.40;;
77522;SDS011;66637;-29.628;-49.938;2023-06-04T03:22:18;5.95;;;2.35;;
77522;SDS011;66637;-29.628;-49.938;2023-06-04T03:24:50;4.63;;;2.50;;
77522;SDS011;66637;-29.628;-49.938;2023-06-04T03:27:22;3.55;;;2.17;;
77522;SDS011;66637;-29.628;-49.938;2023-06-04T03:29:52;4.50;;;2.63;;
77522;SDS011;66637;-29.628;-49.938;2023-06-04T03:32:23;4.35;;;2.63;;
77522;SDS011;66637;-29.628;-49.938;2023-06-04T03:34:55;5.18;;;2.60;;
77522;SDS011;66637;-29.628;-49.938;2023-06-04T03:37:28;6.13;;;3.17;;
77522;SDS011;66637;-29.628;-49.938;2023-06-04T03:40:04;5.30;;;2.85;;
77522;SDS011;66637;-29.628;-49.938;2023-06-04T03:42:42;5.38;;;2.75;;
77522;SDS011;66637;-29.628;-49.938;2023-06-04T03:45:14;4.18;;;2.50;;
77522;SDS011;66637;-29.628;-49.938;2023-06-04T03:47:50;3.30;;;2.40;;
77522;SDS011;66637;-29.628;-49.938;2023-06-04T03:50:23;4.30;;;2.60;;
77522;SDS011;66637;-29.628;-49.938;2023-06-04T03:52:56;3.50;;;2.25;;
77522;SDS011;66637;-29.628;-49.938;2023-06-04T03:55:30;3.38;;;2.10;;
77522;SDS011;66637;-29.628;-49.938;2023-06-04T03:58:09;3.58;;;2.13;;
77522;SDS011;66637;-29.628;-49.938;2023-06-04T04:00:45;3.67;;;2.30;;
77522;SDS011;66637;-29.628;-49.938;2023-06-04T04:03:16;4.43;;;2.20;;
77522;SDS011;66637;-29.628;-49.938;2023-06-04T04:05:47;3.38;;;2.30;;
77522;SDS011;66637;-29.628;-49.938;2023-06-04T04:08:19;4.70;;;2.30;;
77522;SDS011;66637;-29.628;-49.938;2023-06-04T04:10:51;4.30;;;2.70;;
77522;SDS011;66637;-29.628;-49.938;2023-06-04T04:13:25;4.07;;;3.00;;
77522;SDS011;66637;-29.628;-49.938;2023-06-04T04:15:57;3.42;;;2.55;;
77522;SDS011;66637;-29.628;-49.938;2023-06-04T04:18:32;3.60;;;2.40;;
77522;SDS011;66637;-29.628;-49.938;2023-06-04T04:21:07;5.60;;;2.72;;
77522;SDS011;66637;-29.628;-49.938;2023-06-04T04:23:40;5.30;;;2.75;;
77522;SDS011;66637;-29.628;-49.938;2023-06-04T04:26:12;4.90;;;2.50;;
77522;SDS011;66637;-29.628;-49.938;2023-06-04T04:28:50;7.55;;;2.60;;
77522;SDS011;66637;-29.628;-49.938;2023-06-04T04:31:22;4.22;;;2.70;;
77522;SDS011;66637;-29.628;-49.938;2023-06-04T04:33:55;5.43;;;2.75;;
77522;SDS011;66637;-29.628;-49.938;2023-06-04T04:36:28;7.15;;;3.40;;
77522;SDS011;66637;-29.628;-49.938;2023-06-04T04:39:04;4.28;;;2.72;;
77522;SDS011;66637;-29.628;-49.938;2023-06-04T04:41:39;5.47;;;2.80;;
77522;SDS011;66637;-29.628;-49.938;2023-06-04T04:44:12;4.68;;;2.75;;
77522;SDS011;66637;-29.628;-49.938;2023-06-04T04:46:44;4.68;;;3.13;;
77522;SDS011;66637;-29.628;-49.938;2023-06-04T04:49:15;4.10;;;3.15;;
77522;SDS011;66637;-29.628;-49.938;2023-06-04T04:51:47;4.55;;;2.60;;
77522;SDS011;66637;-29.628;-49.938;2023-06-04T04:54:18;5.30;;;2.70;;
77522;SDS011;66637;-29.628;-49.938;2023-06-04T04:56:50;3.55;;;2.72;;
77522;SDS011;66637;-29.628;-49.938;2023-06-04T04:59:41;5.38;;;2.78;;
77522;SDS011;66637;-29.628;-49.938;2023-06-04T05:02:13;6.32;;;2.72;;
77522;SDS011;66637;-29.628;-49.938;2023-06-04T05:04:47;7.85;;;2.90;;
77522;SDS011;66637;-29.628;-49.938;2023-06-04T05:07:17;4.10;;;2.53;;
77522;SDS011;66637;-29.628;-49.938;2023-06-04T05:09:51;4.85;;;2.92;;
77522;SDS011;66637;-29.628;-49.938;2023-06-04T05:12:24;6.15;;;2.90;;
77522;SDS011;66637;-29.628;-49.938;2023-06-04T05:14:57;5.88;;;2.25;;
77522;SDS011;66637;-29.628;-49.938;2023-06-04T05:17:28;5.60;;;2.80;;
77522;SDS011;66637;-29.628;-49.938;2023-06-04T05:20:06;3.65;;;2.40;;
77522;SDS011;66637;-29.628;-49.938;2023-06-04T05:22:44;4.80;;;2.53;;
77522;SDS011;66637;-29.628;-49.938;2023-06-04T05:25:16;3.88;;;2.45;;
77522;SDS011;66637;-29.628;-49.938;2023-06-04T05:27:49;3.20;;;1.98;;
77522;SDS011;66637;-29.628;-49.938;2023-06-04T05:30:20;2.88;;;2.00;;
77522;SDS011;66637;-29.628;-49.938;2023-06-04T05:32:51;3.17;;;1.92;;
77522;SDS011;66637;-29.628;-49.938;2023-06-04T05:35:25;2.60;;;2.00;;
77522;SDS011;66637;-29.628;-49.938;2023-06-04T05:37:56;3.13;;;2.00;;
77522;SDS011;66637;-29.628;-49.938;2023-06-04T05:40:31;2.97;;;2.10;;
77522;SDS011;66637;-29.628;-49.938;2023-06-04T05:43:02;4.85;;;2.00;;
77522;SDS011;66637;-29.628;-49.938;2023-06-04T05:45:33;3.40;;;2.20;;
77522;SDS011;66637;-29.628;-49.938;2023-06-04T05:48:26;3.38;;;1.88;;
77522;SDS011;66637;-29.628;-49.938;2023-06-04T05:50:57;5.13;;;2.00;;
77522;SDS011;66637;-29.628;-49.938;2023-06-04T05:53:28;4.95;;;2.00;;
77522;SDS011;66637;-29.628;-49.938;2023-06-04T05:55:58;4.90;;;2.10;;
77522;SDS011;66637;-29.628;-49.938;2023-06-04T05:58:34;2.90;;;2.10;;
77522;SDS011;66637;-29.628;-49.938;2023-06-04T06:01:07;4.03;;;2.20;;
77522;SDS011;66637;-29.628;-49.938;2023-06-04T06:03:39;3.08;;;2.00;;
77522;SDS011;66637;-29.628;-49.938;2023-06-04T06:06:11;7.93;;;2.55;;
77522;SDS011;66637;-29.628;-49.938;2023-06-04T06:08:43;3.22;;;2.20;;
77522;SDS011;66637;-29.628;-49.938;2023-06-04T06:11:14;3.38;;;2.08;;
77522;SDS011;66637;-29.628;-49.938;2023-06-04T06:13:46;3.22;;;2.10;;
77522;SDS011;66637;-29.628;-49.938;2023-06-04T06:16:17;2.65;;;2.08;;
77522;SDS011;66637;-29.628;-49.938;2023-06-04T06:18:49;3.55;;;1.90;;
77522;SDS011;66637;-29.628;-49.938;2023-06-04T06:21:19;4.10;;;2.00;;
77522;SDS011;66637;-29.628;-49.938;2023-06-04T06:26:26;2.53;;;1.90;;
77522;SDS011;66637;-29.628;-49.938;2023-06-04T06:28:59;3.05;;;2.13;;
77522;SDS011;66637;-29.628;-49.938;2023-06-04T06:31:31;3.47;;;2.40;;
77522;SDS011;66637;-29.628;-49.938;2023-06-04T06:34:03;2.65;;;2.15;;
77522;SDS011;66637;-29.628;-49.938;2023-06-04T06:36:37;3.53;;;2.00;;
77522;SDS011;66637;-29.628;-49.938;2023-06-04T06:39:12;2.92;;;2.10;;
77522;SDS011;66637;-29.628;-49.938;2023-06-04T06:41:45;3.72;;;2.40;;
77522;SDS011;66637;-29.628;-49.938;2023-06-04T06:44:20;2.97;;;2.00;;
77522;SDS011;66637;-29.628;-49.938;2023-06-04T06:46:53;4.68;;;2.08;;
77522;SDS011;66637;-29.628;-49.938;2023-06-04T06:49:24;3.88;;;2.20;;
77522;SDS011;66637;-29.628;-49.938;2023-06-04T06:51:54;5.20;;;2.22;;
77522;SDS011;66637;-29.628;-49.938;2023-06-04T06:54:26;3.38;;;2.00;;
77522;SDS011;66637;-29.628;-49.938;2023-06-04T06:56:57;3.10;;;2.20;;
77522;SDS011;66637;-29.628;-49.938;2023-06-04T06:59:27;5.95;;;2.30;;
77522;SDS011;66637;-29.628;-49.938;2023-06-04T07:01:58;4.70;;;2.00;;
77522;SDS011;66637;-29.628;-49.938;2023-06-04T07:04:33;3.60;;;2.13;;
77522;SDS011;66637;-29.628;-49.938;2023-06-04T07:07:05;3.17;;;2.30;;
77522;SDS011;66637;-29.628;-49.938;2023-06-04T07:09:36;3.67;;;2.28;;
77522;SDS011;66637;-29.628;-49.938;2023-06-04T07:12:20;3.13;;;2.20;;
77522;SDS011;66637;-29.628;-49.938;2023-06-04T07:14:51;4.10;;;2.15;;
77522;SDS011;66637;-29.628;-49.938;2023-06-04T07:17:22;2.92;;;2.03;;
77522;SDS011;66637;-29.628;-49.938;2023-06-04T07:19:53;2.63;;;2.10;;
77522;SDS011;66637;-29.628;-49.938;2023-06-04T07:22:24;3.13;;;2.20;;
77522;SDS011;66637;-29.628;-49.938;2023-06-04T07:24:55;3.60;;;2.13;;
77522;SDS011;66637;-29.628;-49.938;2023-06-04T07:27:27;3.15;;;1.98;;
77522;SDS011;66637;-29.628;-49.938;2023-06-04T07:29:57;4.70;;;1.98;;
77522;SDS011;66637;-29.628;-49.938;2023-06-04T07:32:29;3.53;;;2.15;;
77522;SDS011;66637;-29.628;-49.938;2023-06-04T07:35:01;3.67;;;2.20;;
77522;SDS011;66637;-29.628;-49.938;2023-06-04T07:37:32;4.18;;;2.28;;
77522;SDS011;66637;-29.628;-49.938;2023-06-04T07:40:04;3.05;;;1.90;;
77522;SDS011;66637;-29.628;-49.938;2023-06-04T07:42:36;3.70;;;2.20;;
77522;SDS011;66637;-29.628;-49.938;2023-06-04T07:45:08;3.40;;;2.00;;
77522;SDS011;66637;-29.628;-49.938;2023-06-04T07:47:39;3.22;;;2.55;;
77522;SDS011;66637;-29.628;-49.938;2023-06-04T07:50:11;2.20;;;1.85;;
77522;SDS011;66637;-29.628;-49.938;2023-06-04T07:52:49;2.83;;;2.20;;
77522;SDS011;66637;-29.628;-49.938;2023-06-04T07:55:24;3.67;;;2.13;;
77522;SDS011;66637;-29.628;-49.938;2023-06-04T07:57:55;3.50;;;2.22;;
77522;SDS011;66637;-29.628;-49.938;2023-06-04T08:00:27;3.47;;;2.10;;
77522;SDS011;66637;-29.628;-49.938;2023-06-04T08:02:57;4.82;;;2.58;;
77522;SDS011;66637;-29.628;-49.938;2023-06-04T08:05:28;2.75;;;1.95;;
77522;SDS011;66637;-29.628;-49.938;2023-06-04T08:07:59;3.88;;;2.13;;
77522;SDS011;66637;-29.628;-49.938;2023-06-04T08:10:30;3.45;;;1.83;;
77522;SDS011;66637;-29.628;-49.938;2023-06-04T08:13:02;6.32;;;2.17;;
77522;SDS011;66637;-29.628;-49.938;2023-06-04T08:15:34;2.30;;;1.92;;
77522;SDS011;66637;-29.628;-49.938;2023-06-04T08:18:04;3.58;;;1.95;;
77522;SDS011;66637;-29.628;-49.938;2023-06-04T08:20:35;4.95;;;2.20;;
77522;SDS011;66637;-29.628;-49.938;2023-06-04T08:23:07;3.60;;;2.17;;
77522;SDS011;66637;-29.628;-49.938;2023-06-04T08:25:39;3.97;;;2.22;;
77522;SDS011;66637;-29.628;-49.938;2023-06-04T08:28:10;2.75;;;2.20;;
77522;SDS011;66637;-29.628;-49.938;2023-06-04T08:30:44;3.35;;;2.25;;
77522;SDS011;66637;-29.628;-49.938;2023-06-04T08:33:15;4.03;;;2.05;;
77522;SDS011;66637;-29.628;-49.938;2023-06-04T08:35:46;4.20;;;2.00;;
77522;SDS011;66637;-29.628;-49.938;2023-06-04T08:38:16;3.33;;;2.08;;
77522;SDS011;66637;-29.628;-49.938;2023-06-04T08:40:48;6.15;;;2.30;;
77522;SDS011;66637;-29.628;-49.938;2023-06-04T08:43:24;2.78;;;2.03;;
77522;SDS011;66637;-29.628;-49.938;2023-06-04T08:45:58;2.80;;;2.10;;
77522;SDS011;66637;-29.628;-49.938;2023-06-04T08:51:35;4.05;;;1.92;;
77522;SDS011;66637;-29.628;-49.938;2023-06-04T08:54:09;2.97;;;2.33;;
77522;SDS011;66637;-29.628;-49.938;2023-06-04T08:56:49;4.78;;;2.40;;
77522;SDS011;66637;-29.628;-49.938;2023-06-04T08:59:23;3.58;;;2.00;;
77522;SDS011;66637;-29.628;-49.938;2023-06-04T09:01:54;2.60;;;1.77;;
77522;SDS011;66637;-29.628;-49.938;2023-06-04T09:04:28;2.28;;;2.00;;
77522;SDS011;66637;-29.628;-49.938;2023-06-04T09:07:01;3.17;;;2.20;;
77522;SDS011;66637;-29.628;-49.938;2023-06-04T09:09:40;3.17;;;2.00;;
77522;SDS011;66637;-29.628;-49.938;2023-06-04T09:12:28;2.88;;;2.08;;
77522;SDS011;66637;-29.628;-49.938;2023-06-04T09:15:00;3.25;;;2.30;;
77522;SDS011;66637;-29.628;-49.938;2023-06-04T09:17:38;2.47;;;2.00;;
77522;SDS011;66637;-29.628;-49.938;2023-06-04T09:20:18;2.45;;;1.90;;
77522;SDS011;66637;-29.628;-49.938;2023-06-04T09:22:53;4.32;;;1.77;;
77522;SDS011;66637;-29.628;-49.938;2023-06-04T09:28:06;2.63;;;2.03;;
77522;SDS011;66637;-29.628;-49.938;2023-06-04T09:30:38;4.05;;;2.08;;
77522;SDS011;66637;-29.628;-49.938;2023-06-04T09:33:10;3.97;;;2.20;;
77522;SDS011;66637;-29.628;-49.938;2023-06-04T09:35:41;3.28;;;2.20;;
77522;SDS011;66637;-29.628;-49.938;2023-06-04T09:38:22;2.92;;;2.08;;
77522;SDS011;66637;-29.628;-49.938;2023-06-04T09:40:53;2.55;;;2.00;;
77522;SDS011;66637;-29.628;-49.938;2023-06-04T09:43:26;3.08;;;1.95;;
77522;SDS011;66637;-29.628;-49.938;2023-06-04T09:46:10;4.28;;;2.10;;
77522;SDS011;66637;-29.628;-49.938;2023-06-04T09:48:44;5.47;;;2.22;;
77522;SDS011;66637;-29.628;-49.938;2023-06-04T09:51:15;2.92;;;2.22;;
77522;SDS011;66637;-29.628;-49.938;2023-06-04T09:54:00;4.03;;;1.95;;
77522;SDS011;66637;-29.628;-49.938;2023-06-04T09:56:39;3.75;;;2.30;;
77522;SDS011;66637;-29.628;-49.938;2023-06-04T09:59:11;2.95;;;2.15;;
77522;SDS011;66637;-29.628;-49.938;2023-06-04T10:01:44;3.10;;;2.33;;
77522;SDS011;66637;-29.628;-49.938;2023-06-04T10:04:15;2.70;;;1.80;;
77522;SDS011;66637;-29.628;-49.938;2023-06-04T10:06:53;2.88;;;2.05;;
77522;SDS011;66637;-29.628;-49.938;2023-06-04T10:09:25;3.03;;;2.00;;
77522;SDS011;66637;-29.628;-49.938;2023-06-04T10:12:00;4.22;;;2.10;;
77522;SDS011;66637;-29.628;-49.938;2023-06-04T10:14:35;2.95;;;2.00;;
77522;SDS011;66637;-29.628;-49.938;2023-06-04T10:17:13;2.20;;;1.90;;
77522;SDS011;66637;-29.628;-49.938;2023-06-04T10:19:45;4.63;;;2.10;;
77522;SDS011;66637;-29.628;-49.938;2023-06-04T10:22:19;4.28;;;2.13;;
77522;SDS011;66637;-29.628;-49.938;2023-06-04T10:24:54;4.18;;;2.10;;
77522;SDS011;66637;-29.628;-49.938;2023-06-04T10:27:26;4.40;;;2.17;;
77522;SDS011;66637;-29.628;-49.938;2023-06-04T10:29:57;2.50;;;2.03;;
77522;SDS011;66637;-29.628;-49.938;2023-06-04T10:32:30;3.13;;;2.40;;
77522;SDS011;66637;-29.628;-49.938;2023-06-04T10:35:05;3.38;;;2.22;;
77522;SDS011;66637;-29.628;-49.938;2023-06-04T10:37:39;3.38;;;2.22;;
77522;SDS011;66637;-29.628;-49.938;2023-06-04T10:40:12;2.45;;;2.20;;
77522;SDS011;66637;-29.628;-49.938;2023-06-04T10:42:44;3.00;;;1.90;;
77522;SDS011;66637;-29.628;-49.938;2023-06-04T10:45:17;4.97;;;1.92;;
77522;SDS011;66637;-29.628;-49.938;2023-06-04T10:48:06;2.63;;;2.00;;
77522;SDS011;66637;-29.628;-49.938;2023-06-04T10:50:50;4.45;;;2.10;;
77522;SDS011;66637;-29.628;-49.938;2023-06-04T10:53:22;3.28;;;1.92;;
77522;SDS011;66637;-29.628;-49.938;2023-06-04T10:55:57;2.92;;;1.88;;
77522;SDS011;66637;-29.628;-49.938;2023-06-04T10:58:32;4.30;;;2.10;;
77522;SDS011;66637;-29.628;-49.938;2023-06-04T11:01:04;4.82;;;2.00;;
77522;SDS011;66637;-29.628;-49.938;2023-06-04T11:03:39;4.20;;;1.90;;
77522;SDS011;66637;-29.628;-49.938;2023-06-04T11:06:15;3.78;;;1.90;;
77522;SDS011;66637;-29.628;-49.938;2023-06-04T11:08:48;3.13;;;2.00;;
77522;SDS011;66637;-29.628;-49.938;2023-06-04T11:11:22;3.25;;;2.00;;
77522;SDS011;66637;-29.628;-49.938;2023-06-04T11:14:09;4.57;;;1.80;;
77522;SDS011;66637;-29.628;-49.938;2023-06-04T11:16:45;2.17;;;1.80;;
77522;SDS011;66637;-29.628;-49.938;2023-06-04T11:19:22;2.70;;;2.13;;
77522;SDS011;66637;-29.628;-49.938;2023-06-04T11:21:54;3.45;;;1.88;;
77522;SDS011;66637;-29.628;-49.938;2023-06-04T11:24:25;4.88;;;2.00;;
77522;SDS011;66637;-29.628;-49.938;2023-06-04T11:26:58;2.60;;;2.03;;
77522;SDS011;66637;-29.628;-49.938;2023-06-04T11:29:48;2.83;;;1.67;;
77522;SDS011;66637;-29.628;-49.938;2023-06-04T11:32:21;2.63;;;1.83;;
77522;SDS011;66637;-29.628;-49.938;2023-06-04T11:35:07;2.45;;;2.17;;
77522;SDS011;66637;-29.628;-49.938;2023-06-04T11:37:41;4.40;;;1.98;;
77522;SDS011;66637;-29.628;-49.938;2023-06-04T11:40:29;1.98;;;1.75;;
77522;SDS011;66637;-29.628;-49.938;2023-06-04T11:43:05;2.15;;;1.58;;
77522;SDS011;66637;-29.628;-49.938;2023-06-04T11:45:53;4.78;;;1.83;;
77522;SDS011;66637;-29.628;-49.938;2023-06-04T11:48:27;3.00;;;1.80;;
77522;SDS011;66637;-29.628;-49.938;2023-06-04T11:51:04;4.50;;;2.17;;
77522;SDS011;66637;-29.628;-49.938;2023-06-04T11:53:46;2.30;;;1.83;;
77522;SDS011;66637;-29.628;-49.938;2023-06-04T11:56:18;2.97;;;1.90;;
77522;SDS011;66637;-29.628;-49.938;2023-06-04T11:58:56;4.07;;;2.17;;
77522;SDS011;66637;-29.628;-49.938;2023-06-04T12:01:28;2.40;;;1.70;;
77522;SDS011;66637;-29.628;-49.938;2023-06-04T12:07:06;4.15;;;2.60;;
77522;SDS011;66637;-29.628;-49.938;2023-06-04T12:09:39;3.17;;;2.03;;
77522;SDS011;66637;-29.628;-49.938;2023-06-04T12:12:11;3.20;;;2.10;;
77522;SDS011;66637;-29.628;-49.938;2023-06-04T12:14:45;4.35;;;2.00;;
77522;SDS011;66637;-29.628;-49.938;2023-06-04T12:17:19;2.33;;;1.63;;
77522;SDS011;66637;-29.628;-49.938;2023-06-04T12:19:52;2.50;;;1.80;;
77522;SDS011;66637;-29.628;-49.938;2023-06-04T12:22:25;4.10;;;1.80;;
77522;SDS011;66637;-29.628;-49.938;2023-06-04T12:25:00;3.42;;;1.77;;
77522;SDS011;66637;-29.628;-49.938;2023-06-04T12:27:36;3.42;;;1.70;;
77522;SDS011;66637;-29.628;-49.938;2023-06-04T12:30:22;4.78;;;1.95;;
77522;SDS011;66637;-29.628;-49.938;2023-06-04T12:33:10;3.53;;;1.70;;
77522;SDS011;66637;-29.628;-49.938;2023-06-04T12:35:43;2.20;;;1.70;;
77522;SDS011;66637;-29.628;-49.938;2023-06-04T12:38:14;2.92;;;1.85;;
77522;SDS011;66637;-29.628;-49.938;2023-06-04T12:40:45;3.08;;;1.80;;
77522;SDS011;66637;-29.628;-49.938;2023-06-04T12:43:20;4.90;;;1.83;;
77522;SDS011;66637;-29.628;-49.938;2023-06-04T12:46:10;2.33;;;1.70;;
77522;SDS011;66637;-29.628;-49.938;2023-06-04T12:48:40;3.35;;;1.70;;
77522;SDS011;66637;-29.628;-49.938;2023-06-04T12:51:12;2.00;;;1.55;;
77522;SDS011;66637;-29.628;-49.938;2023-06-04T12:53:44;3.10;;;2.00;;
77522;SDS011;66637;-29.628;-49.938;2023-06-04T12:56:15;9.40;;;1.90;;
77522;SDS011;66637;-29.628;-49.938;2023-06-04T12:58:46;2.58;;;1.75;;
77522;SDS011;66637;-29.628;-49.938;2023-06-04T13:01:21;2.15;;;1.48;;
77522;SDS011;66637;-29.628;-49.938;2023-06-04T13:04:05;2.22;;;1.30;;
77522;SDS011;66637;-29.628;-49.938;2023-06-04T13:06:40;2.30;;;1.60;;
77522;SDS011;66637;-29.628;-49.938;2023-06-04T13:09:12;4.78;;;1.35;;
77522;SDS011;66637;-29.628;-49.938;2023-06-04T13:11:45;4.07;;;1.50;;
77522;SDS011;66637;-29.628;-49.938;2023-06-04T13:14:26;5.50;;;1.70;;
77522;SDS011;66637;-29.628;-49.938;2023-06-04T13:17:11;2.08;;;1.50;;
77522;SDS011;66637;-29.628;-49.938;2023-06-04T13:19:50;3.55;;;1.60;;
77522;SDS011;66637;-29.628;-49.938;2023-06-04T13:22:24;4.82;;;2.10;;
77522;SDS011;66637;-29.628;-49.938;2023-06-04T13:24:58;2.20;;;1.73;;
77522;SDS011;66637;-29.628;-49.938;2023-06-04T13:27:31;3.17;;;1.90;;
77522;SDS011;66637;-29.628;-49.938;2023-06-04T13:30:09;2.67;;;1.48;;
77522;SDS011;66637;-29.628;-49.938;2023-06-04T13:32:47;1.65;;;1.50;;
77522;SDS011;66637;-29.628;-49.938;2023-06-04T13:35:20;2.67;;;1.77;;
77522;SDS011;66637;-29.628;-49.938;2023-06-04T13:37:56;2.15;;;1.60;;
77522;SDS011;66637;-29.628;-49.938;2023-06-04T13:40:34;3.85;;;1.55;;
77522;SDS011;66637;-29.628;-49.938;2023-06-04T13:43:12;4.93;;;1.98;;
77522;SDS011;66637;-29.628;-49.938;2023-06-04T13:51:17;2.20;;;1.60;;
77522;SDS011;66637;-29.628;-49.938;2023-06-04T13:53:50;2.88;;;1.50;;
77522;SDS011;66637;-29.628;-49.938;2023-06-04T13:56:24;2.88;;;1.20;;
77522;SDS011;66637;-29.628;-49.938;2023-06-04T13:58:57;3.97;;;1.67;;
77522;SDS011;66637;-29.628;-49.938;2023-06-04T14:01:31;2.65;;;1.70;;
77522;SDS011;66637;-29.628;-49.938;2023-06-04T14:04:07;4.50;;;1.50;;
77522;SDS011;66637;-29.628;-49.938;2023-06-04T14:06:43;1.90;;;1.38;;
77522;SDS011;66637;-29.628;-49.938;2023-06-04T14:09:23;1.50;;;1.38;;
77522;SDS011;66637;-29.628;-49.938;2023-06-04T14:11:54;16.85;;;2.83;;
77522;SDS011;66637;-29.628;-49.938;2023-06-04T14:14:26;19.48;;;3.70;;
77522;SDS011;66637;-29.628;-49.938;2023-06-04T14:16:59;28.65;;;4.15;;
77522;SDS011;66637;-29.628;-49.938;2023-06-04T14:19:41;17.45;;;2.97;;
77522;SDS011;66637;-29.628;-49.938;2023-06-04T14:22:13;19.80;;;3.42;;
77522;SDS011;66637;-29.628;-49.938;2023-06-04T14:24:51;31.67;;;4.75;;
77522;SDS011;66637;-29.628;-49.938;2023-06-04T14:27:24;17.60;;;2.88;;
77522;SDS011;66637;-29.628;-49.938;2023-06-04T14:29:56;31.92;;;4.78;;
77522;SDS011;66637;-29.628;-49.938;2023-06-04T14:32:27;21.33;;;3.20;;
77522;SDS011;66637;-29.628;-49.938;2023-06-04T14:34:59;16.77;;;2.85;;
77522;SDS011;66637;-29.628;-49.938;2023-06-04T14:37:30;19.20;;;3.17;;
77522;SDS011;66637;-29.628;-49.938;2023-06-04T14:40:02;15.35;;;2.67;;
77522;SDS011;66637;-29.628;-49.938;2023-06-04T14:42:34;17.05;;;3.53;;
77522;SDS011;66637;-29.628;-49.938;2023-06-04T14:45:08;17.63;;;3.03;;
77522;SDS011;66637;-29.628;-49.938;2023-06-04T14:47:54;17.80;;;4.38;;
77522;SDS011;66637;-29.628;-49.938;2023-06-04T14:50:45;18.88;;;3.28;;
77522;SDS011;66637;-29.628;-49.938;2023-06-04T14:53:21;17.88;;;3.90;;
77522;SDS011;66637;-29.628;-49.938;2023-06-04T14:55:54;17.05;;;3.35;;
77522;SDS011;66637;-29.628;-49.938;2023-06-04T14:58:29;12.07;;;3.15;;
77522;SDS011;66637;-29.628;-49.938;2023-06-04T15:01:10;42.58;;;6.53;;
77522;SDS011;66637;-29.628;-49.938;2023-06-04T15:03:45;37.75;;;5.75;;
77522;SDS011;66637;-29.628;-49.938;2023-06-04T15:06:17;32.80;;;4.45;;
77522;SDS011;66637;-29.628;-49.938;2023-06-04T15:08:57;26.42;;;6.07;;